RYR0402 LIBD-LICJ
Flight info
| Callsign | RYR0402 |
|---|---|
| Flight time | 0h 54m |
| Altitude | 31000 |
| Route | LIBD/25 N0420F310 TOPN5Z TOPNO DCT BUMOK DCT KUTID DCT AMANO/N0341F190 M742 ROSAS ROSA3N LICJ/07 |
| Aircraft | B738/M-SDE2E3FGHIRWXY/LB1 |
Departure
| Time | 2026-04-22 21:26 |
|---|---|
| Airport | Bari Karol Wojtyła International Airport (LIBD) |
Arrival
| Time | 2026-04-22 22:20 |
|---|---|
| Airport | Falcone–Borsellino Airport (LICJ) |
| Time | Latitude | Longitude | Altitude | Speed | Heading |
|---|---|---|---|---|---|
| 2026-04-22 20:55 | 41.13560 | 16.76465 | 146 ft | 0 kts | 162° |
| 2026-04-22 21:15 | 41.13573 | 16.76459 | 146 ft | 2 kts | 162° |
| 2026-04-22 21:15 | 41.13575 | 16.76459 | 146 ft | 0 kts | 162° |
| 2026-04-22 21:18 | 41.13577 | 16.76458 | 146 ft | 2 kts | 162° |
| 2026-04-22 21:18 | 41.13593 | 16.76451 | 145 ft | 2 kts | 162° |
| 2026-04-22 21:18 | 41.13608 | 16.76445 | 145 ft | 2 kts | 162° |
| 2026-04-22 21:18 | 41.13624 | 16.76438 | 144 ft | 2 kts | 163° |
| 2026-04-22 21:19 | 41.13633 | 16.76431 | 144 ft | 0 kts | 86° |
| 2026-04-22 21:21 | 41.13633 | 16.76433 | 144 ft | 1 kts | 83° |
| 2026-04-22 21:21 | 41.13639 | 16.76466 | 143 ft | 7 kts | 70° |
| 2026-04-22 21:21 | 41.13682 | 16.76530 | 140 ft | 12 kts | 28° |
| 2026-04-22 21:21 | 41.13772 | 16.76552 | 138 ft | 14 kts | 11° |
| 2026-04-22 21:22 | 41.13837 | 16.76663 | 134 ft | 18 kts | 69° |
| 2026-04-22 21:22 | 41.13888 | 16.76837 | 125 ft | 22 kts | 69° |
| 2026-04-22 21:22 | 41.13940 | 16.77032 | 126 ft | 24 kts | 68° |
| 2026-04-22 21:22 | 41.14001 | 16.77239 | 121 ft | 16 kts | 70° |
| 2026-04-22 21:23 | 41.14038 | 16.77352 | 119 ft | 12 kts | 54° |
| 2026-04-22 21:23 | 41.14114 | 16.77406 | 114 ft | 11 kts | 14° |
| 2026-04-22 21:23 | 41.14118 | 16.77407 | 114 ft | 0 kts | 14° |
| 2026-04-22 21:24 | 41.14121 | 16.77408 | 114 ft | 2 kts | 14° |
| 2026-04-22 21:24 | 41.14146 | 16.77416 | 115 ft | 6 kts | 10° |
| 2026-04-22 21:24 | 41.14192 | 16.77402 | 112 ft | 8 kts | 325° |
| 2026-04-22 21:24 | 41.14208 | 16.77334 | 114 ft | 8 kts | 263° |
| 2026-04-22 21:25 | 41.14192 | 16.77264 | 116 ft | 8 kts | 249° |
| 2026-04-22 21:25 | 41.14171 | 16.77193 | 118 ft | 11 kts | 247° |
| 2026-04-22 21:25 | 41.14106 | 16.76980 | 125 ft | 41 kts | 249° |
| 2026-04-22 21:25 | 41.13968 | 16.76491 | 137 ft | 73 kts | 248° |
| 2026-04-22 21:26 | 41.13705 | 16.75577 | 168 ft | 141 kts | 252° |
| 2026-04-22 21:26 | 41.13305 | 16.74163 | 486 ft | 182 kts | 248° |
| 2026-04-22 21:26 | 41.12670 | 16.72610 | 1296 ft | 199 kts | 241° |
| 2026-04-22 21:26 | 41.12145 | 16.70934 | 2114 ft | 197 kts | 262° |
| 2026-04-22 21:27 | 41.11780 | 16.69168 | 2885 ft | 200 kts | 258° |
| 2026-04-22 21:27 | 41.11339 | 16.67407 | 3638 ft | 202 kts | 256° |
| 2026-04-22 21:27 | 41.10866 | 16.65646 | 4396 ft | 203 kts | 255° |
| 2026-04-22 21:27 | 41.10380 | 16.63896 | 5156 ft | 202 kts | 255° |
| 2026-04-22 21:28 | 41.09888 | 16.62154 | 5921 ft | 200 kts | 255° |
| 2026-04-22 21:28 | 41.09400 | 16.60438 | 6682 ft | 198 kts | 254° |
| 2026-04-22 21:28 | 41.08916 | 16.58720 | 7271 ft | 204 kts | 254° |
| 2026-04-22 21:28 | 41.08411 | 16.56933 | 7792 ft | 209 kts | 254° |
| 2026-04-22 21:29 | 41.07893 | 16.55112 | 8352 ft | 214 kts | 254° |
| 2026-04-22 21:29 | 41.07361 | 16.53248 | 8888 ft | 219 kts | 253° |
| 2026-04-22 21:29 | 41.06815 | 16.51339 | 9431 ft | 224 kts | 253° |
| 2026-04-22 21:29 | 41.06258 | 16.49388 | 9979 ft | 228 kts | 253° |
| 2026-04-22 21:30 | 41.05690 | 16.47404 | 10474 ft | 232 kts | 253° |
| 2026-04-22 21:30 | 41.05113 | 16.45385 | 10979 ft | 236 kts | 253° |
| 2026-04-22 21:30 | 41.04528 | 16.43343 | 11482 ft | 239 kts | 253° |
| 2026-04-22 21:30 | 41.04136 | 16.41974 | 11821 ft | 241 kts | 254° |
| 2026-04-22 21:31 | 41.03538 | 16.39886 | 12322 ft | 245 kts | 254° |
| 2026-04-22 21:31 | 41.02929 | 16.37760 | 12830 ft | 250 kts | 254° |
| 2026-04-22 21:31 | 41.02303 | 16.35574 | 13343 ft | 258 kts | 254° |
| 2026-04-22 21:31 | 41.01655 | 16.33308 | 13886 ft | 269 kts | 254° |
| 2026-04-22 21:32 | 41.00980 | 16.30955 | 14403 ft | 278 kts | 254° |
| 2026-04-22 21:32 | 41.00281 | 16.28520 | 14910 ft | 287 kts | 254° |
| 2026-04-22 21:32 | 40.99564 | 16.26030 | 15404 ft | 289 kts | 255° |
| 2026-04-22 21:32 | 40.98849 | 16.23557 | 15898 ft | 286 kts | 255° |
| 2026-04-22 21:33 | 40.98142 | 16.21107 | 16406 ft | 284 kts | 255° |
| 2026-04-22 21:33 | 40.97442 | 16.18679 | 16918 ft | 282 kts | 256° |
| 2026-04-22 21:33 | 40.96744 | 16.16263 | 17449 ft | 280 kts | 256° |
| 2026-04-22 21:33 | 40.96049 | 16.13861 | 17984 ft | 279 kts | 256° |
| 2026-04-22 21:34 | 40.95353 | 16.11472 | 18513 ft | 279 kts | 255° |
| 2026-04-22 21:34 | 40.94395 | 16.09162 | 18946 ft | 293 kts | 244° |
| 2026-04-22 21:34 | 40.93210 | 16.06958 | 19495 ft | 295 kts | 243° |
| 2026-04-22 21:34 | 40.91989 | 16.04751 | 19928 ft | 299 kts | 243° |
| 2026-04-22 21:35 | 40.90755 | 16.02518 | 20283 ft | 303 kts | 243° |
| 2026-04-22 21:35 | 40.89519 | 16.00274 | 20653 ft | 299 kts | 243° |
| 2026-04-22 21:35 | 40.88306 | 15.98064 | 21024 ft | 296 kts | 243° |
| 2026-04-22 21:35 | 40.87102 | 15.95855 | 21406 ft | 297 kts | 243° |
| 2026-04-22 21:36 | 40.85894 | 15.93631 | 21788 ft | 298 kts | 243° |
| 2026-04-22 21:36 | 40.84684 | 15.91399 | 22184 ft | 299 kts | 243° |
| 2026-04-22 21:36 | 40.83472 | 15.89164 | 22569 ft | 300 kts | 243° |
| 2026-04-22 21:36 | 40.82256 | 15.86923 | 22981 ft | 300 kts | 243° |
| 2026-04-22 21:37 | 40.80646 | 15.83955 | 23522 ft | 301 kts | 243° |
| 2026-04-22 21:37 | 40.79823 | 15.82438 | 23786 ft | 301 kts | 243° |
| 2026-04-22 21:37 | 40.78595 | 15.80173 | 24145 ft | 306 kts | 243° |
| 2026-04-22 21:37 | 40.77346 | 15.77870 | 24483 ft | 312 kts | 243° |
| 2026-04-22 21:38 | 40.76075 | 15.75529 | 24853 ft | 315 kts | 243° |
| 2026-04-22 21:38 | 40.74792 | 15.73172 | 25205 ft | 318 kts | 243° |
| 2026-04-22 21:38 | 40.73496 | 15.70796 | 25573 ft | 320 kts | 243° |
| 2026-04-22 21:38 | 40.72193 | 15.68410 | 25930 ft | 322 kts | 243° |
| 2026-04-22 21:39 | 40.70864 | 15.66027 | 26291 ft | 324 kts | 241° |
| 2026-04-22 21:39 | 40.69430 | 15.63711 | 26686 ft | 328 kts | 239° |
| 2026-04-22 21:39 | 40.67948 | 15.61417 | 27043 ft | 329 kts | 239° |
| 2026-04-22 21:39 | 40.66456 | 15.59129 | 27428 ft | 329 kts | 239° |
| 2026-04-22 21:40 | 40.64968 | 15.56840 | 27812 ft | 329 kts | 239° |
| 2026-04-22 21:40 | 40.63506 | 15.54581 | 28192 ft | 327 kts | 239° |
| 2026-04-22 21:40 | 40.62036 | 15.52300 | 28589 ft | 326 kts | 239° |
| 2026-04-22 21:40 | 40.60576 | 15.50030 | 28983 ft | 324 kts | 239° |
| 2026-04-22 21:41 | 40.59127 | 15.47773 | 29409 ft | 321 kts | 239° |
| 2026-04-22 21:41 | 40.57689 | 15.45532 | 29795 ft | 320 kts | 240° |
| 2026-04-22 21:41 | 40.56263 | 15.43309 | 30216 ft | 317 kts | 240° |
| 2026-04-22 21:41 | 40.54848 | 15.41106 | 30565 ft | 314 kts | 240° |
| 2026-04-22 21:42 | 40.53445 | 15.38919 | 30933 ft | 311 kts | 240° |
| 2026-04-22 21:42 | 40.52044 | 15.36735 | 31138 ft | 317 kts | 239° |
| 2026-04-22 21:42 | 40.49150 | 15.32219 | 31108 ft | 325 kts | 239° |
| 2026-04-22 21:43 | 40.46204 | 15.27641 | 31113 ft | 338 kts | 239° |
| 2026-04-22 21:43 | 40.44663 | 15.25243 | 31101 ft | 350 kts | 238° |
| 2026-04-22 21:43 | 40.43063 | 15.22763 | 31115 ft | 362 kts | 238° |
| 2026-04-22 21:44 | 40.41403 | 15.20212 | 31099 ft | 374 kts | 237° |
| 2026-04-22 21:44 | 40.39650 | 15.17629 | 31095 ft | 384 kts | 236° |
| 2026-04-22 21:44 | 40.37825 | 15.14998 | 31094 ft | 395 kts | 235° |
| 2026-04-22 21:44 | 40.35948 | 15.12307 | 31084 ft | 405 kts | 235° |
| 2026-04-22 21:45 | 40.32056 | 15.06731 | 31079 ft | 423 kts | 234° |
| 2026-04-22 21:45 | 40.28016 | 15.00932 | 31082 ft | 438 kts | 234° |
| 2026-04-22 21:46 | 40.23891 | 14.95015 | 31052 ft | 440 kts | 234° |
| 2026-04-22 21:46 | 40.19771 | 14.89109 | 31054 ft | 439 kts | 234° |
| 2026-04-22 21:47 | 40.15656 | 14.83214 | 31053 ft | 439 kts | 234° |
| 2026-04-22 21:47 | 40.11543 | 14.77328 | 31054 ft | 438 kts | 234° |
| 2026-04-22 21:48 | 40.07434 | 14.71459 | 31065 ft | 438 kts | 234° |
| 2026-04-22 21:48 | 40.03323 | 14.65599 | 31060 ft | 438 kts | 233° |
| 2026-04-22 21:49 | 39.99213 | 14.59749 | 31062 ft | 437 kts | 233° |
| 2026-04-22 21:49 | 39.95125 | 14.53944 | 31063 ft | 437 kts | 233° |
| 2026-04-22 21:50 | 39.91008 | 14.48108 | 31067 ft | 438 kts | 233° |
| 2026-04-22 21:50 | 39.86884 | 14.42273 | 31062 ft | 438 kts | 233° |
| 2026-04-22 21:51 | 39.82754 | 14.36441 | 31062 ft | 438 kts | 233° |
| 2026-04-22 21:52 | 39.76549 | 14.27699 | 31061 ft | 439 kts | 233° |
| 2026-04-22 21:52 | 39.74501 | 14.24824 | 31041 ft | 426 kts | 233° |
| 2026-04-22 21:52 | 39.72514 | 14.22043 | 30842 ft | 415 kts | 233° |
| 2026-04-22 21:52 | 39.70563 | 14.19308 | 30385 ft | 410 kts | 233° |
| 2026-04-22 21:53 | 39.68642 | 14.16613 | 30056 ft | 406 kts | 233° |
| 2026-04-22 21:53 | 39.66723 | 14.13917 | 29590 ft | 408 kts | 233° |
| 2026-04-22 21:53 | 39.64795 | 14.11211 | 29185 ft | 409 kts | 233° |
| 2026-04-22 21:53 | 39.62862 | 14.08502 | 28772 ft | 410 kts | 233° |
| 2026-04-22 21:54 | 39.60922 | 14.05787 | 28366 ft | 411 kts | 233° |
| 2026-04-22 21:54 | 39.58973 | 14.03064 | 27964 ft | 413 kts | 233° |
| 2026-04-22 21:54 | 39.57039 | 14.00366 | 27573 ft | 415 kts | 233° |
| 2026-04-22 21:54 | 39.55073 | 13.97624 | 27177 ft | 416 kts | 233° |
| 2026-04-22 21:55 | 39.53097 | 13.94871 | 26803 ft | 418 kts | 233° |
| 2026-04-22 21:55 | 39.51114 | 13.92109 | 26421 ft | 419 kts | 233° |
| 2026-04-22 21:55 | 39.49123 | 13.89338 | 26046 ft | 421 kts | 233° |
| 2026-04-22 21:55 | 39.47126 | 13.86560 | 25676 ft | 422 kts | 233° |
| 2026-04-22 21:56 | 39.45121 | 13.83778 | 25309 ft | 423 kts | 232° |
| 2026-04-22 21:56 | 39.43110 | 13.81003 | 24946 ft | 424 kts | 231° |
| 2026-04-22 21:56 | 39.40801 | 13.78575 | 24467 ft | 435 kts | 216° |
| 2026-04-22 21:56 | 39.38124 | 13.76805 | 24358 ft | 428 kts | 213° |
| 2026-04-22 21:57 | 39.35458 | 13.75090 | 23999 ft | 430 kts | 213° |
| 2026-04-22 21:57 | 39.32787 | 13.73355 | 23761 ft | 428 kts | 213° |
| 2026-04-22 21:57 | 39.30133 | 13.71614 | 23440 ft | 428 kts | 213° |
| 2026-04-22 21:57 | 39.27489 | 13.69864 | 23109 ft | 427 kts | 213° |
| 2026-04-22 21:58 | 39.24856 | 13.68112 | 22788 ft | 426 kts | 213° |
| 2026-04-22 21:58 | 39.22227 | 13.66358 | 22468 ft | 425 kts | 213° |
| 2026-04-22 21:58 | 39.19606 | 13.64608 | 22148 ft | 423 kts | 213° |
| 2026-04-22 21:58 | 39.16997 | 13.62867 | 21830 ft | 422 kts | 213° |
| 2026-04-22 21:59 | 39.14394 | 13.61132 | 21515 ft | 420 kts | 213° |
| 2026-04-22 21:59 | 39.11802 | 13.59405 | 21207 ft | 419 kts | 213° |
| 2026-04-22 21:59 | 39.09217 | 13.57684 | 20905 ft | 417 kts | 213° |
| 2026-04-22 21:59 | 39.06644 | 13.55974 | 20603 ft | 416 kts | 213° |
| 2026-04-22 22:00 | 39.04075 | 13.54267 | 20300 ft | 414 kts | 213° |
| 2026-04-22 22:00 | 39.01519 | 13.52569 | 19999 ft | 413 kts | 213° |
| 2026-04-22 22:00 | 38.98974 | 13.50879 | 19703 ft | 412 kts | 213° |
| 2026-04-22 22:00 | 38.96433 | 13.49196 | 19409 ft | 410 kts | 213° |
| 2026-04-22 22:01 | 38.93898 | 13.47518 | 19127 ft | 409 kts | 213° |
| 2026-04-22 22:01 | 38.91368 | 13.45845 | 18850 ft | 408 kts | 213° |
| 2026-04-22 22:01 | 38.88848 | 13.44179 | 18561 ft | 407 kts | 213° |
| 2026-04-22 22:01 | 38.86335 | 13.42519 | 18275 ft | 406 kts | 213° |
| 2026-04-22 22:02 | 38.83830 | 13.40866 | 17944 ft | 402 kts | 213° |
| 2026-04-22 22:02 | 38.81370 | 13.39248 | 17619 ft | 393 kts | 213° |
| 2026-04-22 22:02 | 38.78968 | 13.37669 | 17289 ft | 384 kts | 213° |
| 2026-04-22 22:02 | 38.76618 | 13.36125 | 16952 ft | 375 kts | 213° |
| 2026-04-22 22:03 | 38.74321 | 13.34614 | 16657 ft | 367 kts | 213° |
| 2026-04-22 22:03 | 38.72070 | 13.33133 | 16340 ft | 361 kts | 213° |
| 2026-04-22 22:03 | 38.69849 | 13.31672 | 16032 ft | 357 kts | 213° |
| 2026-04-22 22:03 | 38.67649 | 13.30224 | 15729 ft | 354 kts | 213° |
| 2026-04-22 22:04 | 38.65461 | 13.28786 | 15359 ft | 352 kts | 213° |
| 2026-04-22 22:04 | 38.63314 | 13.27378 | 14958 ft | 341 kts | 213° |
| 2026-04-22 22:04 | 38.61264 | 13.26038 | 14653 ft | 329 kts | 213° |
| 2026-04-22 22:04 | 38.59265 | 13.24732 | 14372 ft | 317 kts | 213° |
| 2026-04-22 22:05 | 38.57332 | 13.23468 | 14068 ft | 307 kts | 213° |
| 2026-04-22 22:05 | 38.55434 | 13.22225 | 13767 ft | 299 kts | 213° |
| 2026-04-22 22:05 | 38.53624 | 13.21040 | 13442 ft | 294 kts | 213° |
| 2026-04-22 22:05 | 38.51816 | 13.19854 | 13127 ft | 291 kts | 213° |
| 2026-04-22 22:06 | 38.50026 | 13.18681 | 12818 ft | 289 kts | 213° |
| 2026-04-22 22:06 | 38.48246 | 13.17516 | 12509 ft | 287 kts | 213° |
| 2026-04-22 22:06 | 38.46474 | 13.16358 | 12199 ft | 285 kts | 213° |
| 2026-04-22 22:06 | 38.44710 | 13.15206 | 11898 ft | 284 kts | 213° |
| 2026-04-22 22:07 | 38.42956 | 13.14061 | 11598 ft | 283 kts | 213° |
| 2026-04-22 22:07 | 38.41206 | 13.12920 | 11296 ft | 282 kts | 212° |
| 2026-04-22 22:07 | 38.39467 | 13.11787 | 11006 ft | 280 kts | 212° |
| 2026-04-22 22:07 | 38.37731 | 13.10658 | 10716 ft | 279 kts | 212° |
| 2026-04-22 22:08 | 38.36003 | 13.09534 | 10350 ft | 278 kts | 212° |
| 2026-04-22 22:08 | 38.34294 | 13.08423 | 9973 ft | 273 kts | 212° |
| 2026-04-22 22:08 | 38.32616 | 13.07334 | 9587 ft | 268 kts | 212° |
| 2026-04-22 22:08 | 38.30963 | 13.06260 | 9196 ft | 265 kts | 211° |
| 2026-04-22 22:09 | 38.29334 | 13.05202 | 8796 ft | 262 kts | 211° |
| 2026-04-22 22:09 | 38.27722 | 13.04155 | 8425 ft | 259 kts | 211° |
| 2026-04-22 22:09 | 38.26128 | 13.03119 | 8044 ft | 256 kts | 211° |
| 2026-04-22 22:09 | 38.24548 | 13.02093 | 7677 ft | 254 kts | 211° |
| 2026-04-22 22:10 | 38.22981 | 13.01076 | 7302 ft | 252 kts | 211° |
| 2026-04-22 22:10 | 38.21333 | 13.00318 | 6877 ft | 256 kts | 193° |
| 2026-04-22 22:10 | 38.19703 | 12.99566 | 6479 ft | 247 kts | 222° |
| 2026-04-22 22:10 | 38.18925 | 12.98548 | 6258 ft | 239 kts | 235° |
| 2026-04-22 22:11 | 38.18625 | 12.98067 | 6189 ft | 237 kts | 236° |
| 2026-04-22 22:11 | 38.17627 | 12.96450 | 5826 ft | 235 kts | 236° |
| 2026-04-22 22:11 | 38.16604 | 12.94827 | 5449 ft | 235 kts | 234° |
| 2026-04-22 22:11 | 38.15558 | 12.93193 | 5055 ft | 235 kts | 234° |
| 2026-04-22 22:12 | 38.14534 | 12.91581 | 4697 ft | 234 kts | 233° |
| 2026-04-22 22:12 | 38.13862 | 12.90513 | 4453 ft | 234 kts | 233° |
| 2026-04-22 22:12 | 38.13619 | 12.90125 | 4354 ft | 234 kts | 233° |
| 2026-04-22 22:12 | 38.12608 | 12.88502 | 4009 ft | 229 kts | 234° |
| 2026-04-22 22:13 | 38.11747 | 12.86834 | 3584 ft | 225 kts | 246° |
| 2026-04-22 22:13 | 38.11080 | 12.85026 | 3119 ft | 226 kts | 245° |
| 2026-04-22 22:13 | 38.10062 | 12.83526 | 2537 ft | 230 kts | 207° |
| 2026-04-22 22:13 | 38.08533 | 12.83196 | 2054 ft | 225 kts | 166° |
| 2026-04-22 22:14 | 38.07235 | 12.84195 | 1619 ft | 220 kts | 123° |
| 2026-04-22 22:14 | 38.06848 | 12.85934 | 1501 ft | 199 kts | 80° |
| 2026-04-22 22:14 | 38.07425 | 12.87390 | 1514 ft | 175 kts | 51° |
| 2026-04-22 22:14 | 38.08176 | 12.88495 | 1477 ft | 158 kts | 40° |
| 2026-04-22 22:15 | 38.09080 | 12.89303 | 1557 ft | 165 kts | 36° |
| 2026-04-22 22:15 | 38.10009 | 12.90120 | 1468 ft | 158 kts | 36° |
| 2026-04-22 22:15 | 38.10878 | 12.90880 | 1244 ft | 143 kts | 36° |
| 2026-04-22 22:15 | 38.11498 | 12.91802 | 1042 ft | 139 kts | 64° |
| 2026-04-22 22:16 | 38.11966 | 12.92903 | 1029 ft | 140 kts | 60° |
| 2026-04-22 22:16 | 38.12425 | 12.93967 | 1015 ft | 136 kts | 63° |
| 2026-04-22 22:16 | 38.12835 | 12.95050 | 1009 ft | 136 kts | 65° |
| 2026-04-22 22:16 | 38.13226 | 12.96150 | 1000 ft | 136 kts | 66° |
| 2026-04-22 22:17 | 38.13605 | 12.97253 | 1010 ft | 138 kts | 66° |
| 2026-04-22 22:17 | 38.13983 | 12.98372 | 996 ft | 136 kts | 66° |
| 2026-04-22 22:17 | 38.14353 | 12.99472 | 1010 ft | 135 kts | 67° |
| 2026-04-22 22:17 | 38.14725 | 13.00583 | 889 ft | 139 kts | 66° |
| 2026-04-22 22:18 | 38.15098 | 13.01695 | 685 ft | 134 kts | 65° |
| 2026-04-22 22:18 | 38.15458 | 13.02772 | 520 ft | 133 kts | 64° |
| 2026-04-22 22:18 | 38.15820 | 13.03852 | 425 ft | 134 kts | 65° |
| 2026-04-22 22:18 | 38.16190 | 13.04956 | 325 ft | 135 kts | 65° |
| 2026-04-22 22:19 | 38.16552 | 13.06037 | 228 ft | 131 kts | 64° |
| 2026-04-22 22:19 | 38.16909 | 13.07100 | 198 ft | 130 kts | 64° |
| 2026-04-22 22:19 | 38.17136 | 13.07807 | 144 ft | 131 kts | 64° |
| 2026-04-22 22:19 | 38.17506 | 13.08869 | 71 ft | 133 kts | 63° |
| 2026-04-22 22:20 | 38.17947 | 13.10209 | 52 ft | 104 kts | 61° |
| 2026-04-22 22:20 | 38.18125 | 13.10698 | 52 ft | 80 kts | 66° |
| 2026-04-22 22:20 | 38.18297 | 13.11209 | 53 ft | 45 kts | 67° |
| 2026-04-22 22:20 | 38.18370 | 13.11439 | 54 ft | 11 kts | 71° |
| 2026-04-22 22:21 | 38.18375 | 13.11459 | 58 ft | 1 kts | 73° |
| 2026-04-22 22:21 | 38.18376 | 13.11467 | 58 ft | 1 kts | 74° |
| 2026-04-22 22:21 | 38.18380 | 13.11479 | 57 ft | 3 kts | 70° |
| 2026-04-22 22:21 | 38.18396 | 13.11532 | 54 ft | 9 kts | 71° |
| 2026-04-22 22:22 | 38.18422 | 13.11634 | 57 ft | 15 kts | 68° |
| 2026-04-22 22:22 | 38.18471 | 13.11766 | 56 ft | 18 kts | 62° |
| 2026-04-22 22:22 | 38.18526 | 13.11868 | 62 ft | 1 kts | 51° |
| 2026-04-22 22:22 | 38.18545 | 13.11878 | 58 ft | 5 kts | 17° |
| 2026-04-22 22:23 | 38.18572 | 13.11884 | 62 ft | 1 kts | 328° |
| 2026-04-22 22:23 | 38.18581 | 13.11857 | 56 ft | 6 kts | 289° |
| 2026-04-22 22:23 | 38.18596 | 13.11784 | 56 ft | 11 kts | 277° |
| 2026-04-22 22:23 | 38.18605 | 13.11661 | 63 ft | 17 kts | 275° |
| 2026-04-22 22:24 | 38.18583 | 13.11494 | 61 ft | 22 kts | 250° |
| 2026-04-22 22:24 | 38.18525 | 13.11305 | 61 ft | 24 kts | 249° |
| 2026-04-22 22:24 | 38.18516 | 13.11186 | 60 ft | 10 kts | 311° |
| 2026-04-22 22:24 | 38.18531 | 13.11092 | 63 ft | 14 kts | 254° |
| 2026-04-22 22:25 | 38.18488 | 13.10952 | 58 ft | 20 kts | 252° |
| 2026-04-22 22:25 | 38.18490 | 13.10789 | 64 ft | 18 kts | 289° |
| 2026-04-22 22:25 | 38.18501 | 13.10635 | 64 ft | 7 kts | 283° |
| 2026-04-22 22:25 | 38.18508 | 13.10631 | 57 ft | 3 kts | 332° |
| 2026-04-22 22:26 | 38.18544 | 13.10609 | 62 ft | 8 kts | 337° |
| 2026-04-22 22:26 | 38.18558 | 13.10601 | 64 ft | 0 kts | 336° |